Time;durP1;ratioP1;P1;durP2;ratioP2;P2;SDS_P1;SDS_P2;PMS_P1;PMS_P2;Temp;Humidity;BMP_temperature;BMP_pressure;BME280_temperature;BME280_humidity;BME280_pressure;Samples;Min_cycle;Max_cycle;Signal;HPM_P1;HPM_P2
2023/02/17 00:00:01;;;;;;;16.55;10.20;;;11.30;99.90;;;;;;4207252;28;20032;-66
2023/02/17 00:02:02;;;;;;;15.60;9.88;;;11.20;99.90;;;;;;4207307;28;20089;-66
2023/02/17 00:04:02;;;;;;;13.68;9.20;;;11.20;99.90;;;;;;4208269;28;20099;-66
2023/02/17 00:06:10;;;;;;;13.85;9.82;;;11.30;99.90;;;;;;4207937;28;20127;-67
2023/02/17 00:08:11;;;;;;;16.23;9.05;;;11.30;99.90;;;;;;4207697;28;20020;-66
2023/02/17 00:10:11;;;;;;;12.00;8.63;;;11.30;99.90;;;;;;4206505;28;20028;-66
2023/02/17 00:12:12;;;;;;;13.32;8.85;;;11.30;99.90;;;;;;4208681;28;20623;-66
2023/02/17 00:14:13;;;;;;;15.18;9.00;;;11.30;99.90;;;;;;4208904;28;20036;-66
2023/02/17 00:16:19;;;;;;;17.35;10.00;;;11.30;99.90;;;;;;4208673;28;20024;-66
2023/02/17 00:18:20;;;;;;;15.20;9.05;;;11.20;99.90;;;;;;4204010;28;20054;-66
2023/02/17 00:20:21;;;;;;;12.32;8.65;;;11.20;99.90;;;;;;4208020;28;20059;-66
2023/02/17 00:22:21;;;;;;;14.68;8.30;;;11.30;99.90;;;;;;4208273;28;20127;-65
2023/02/17 00:24:23;;;;;;;16.17;9.32;;;11.30;99.90;;;;;;4208467;28;20491;-66
2023/02/17 00:26:24;;;;;;;12.50;8.95;;;11.20;99.90;;;;;;4202600;28;20087;-66
2023/02/17 00:28:24;;;;;;;14.35;8.75;;;11.20;99.90;;;;;;4206305;28;20036;-66
2023/02/17 00:30:26;;;;;;;15.73;8.77;;;11.20;99.90;;;;;;4207548;28;20119;-66
2023/02/17 00:32:26;;;;;;;12.73;7.68;;;11.20;99.90;;;;;;4207484;28;20594;-66
2023/02/17 00:34:27;;;;;;;12.88;8.60;;;11.20;99.90;;;;;;4208612;28;20058;-66
2023/02/17 00:36:28;;;;;;;10.27;7.43;;;11.30;99.90;;;;;;4207844;28;20537;-66
2023/02/17 00:38:28;;;;;;;12.50;7.72;;;11.30;99.90;;;;;;4208771;28;20043;-66
2023/02/17 00:40:29;;;;;;;12.30;8.38;;;11.30;99.90;;;;;;4205797;28;20036;-66
2023/02/17 00:42:29;;;;;;;12.90;8.45;;;11.30;99.90;;;;;;4208328;28;20028;-66
2023/02/17 00:44:30;;;;;;;11.65;7.78;;;11.30;99.90;;;;;;4208685;28;20047;-66
2023/02/17 00:46:31;;;;;;;12.93;8.05;;;11.30;99.90;;;;;;4207535;28;20104;-66
2023/02/17 00:48:32;;;;;;;10.85;6.72;;;11.30;99.90;;;;;;4208523;28;20081;-66
2023/02/17 00:50:32;;;;;;;11.65;7.30;;;11.30;99.90;;;;;;4207054;28;20114;-66
2023/02/17 00:52:33;;;;;;;11.25;7.25;;;11.30;99.90;;;;;;4208043;28;20047;-66
2023/02/17 00:54:33;;;;;;;10.95;7.07;;;11.30;99.90;;;;;;4208338;28;20043;-67
2023/02/17 00:56:34;;;;;;;10.10;6.97;;;11.30;99.90;;;;;;4207529;28;20089;-67
2023/02/17 00:58:35;;;;;;;9.43;6.97;;;11.30;99.90;;;;;;4209378;28;20040;-67
2023/02/17 01:00:35;;;;;;;13.18;7.22;;;11.30;99.90;;;;;;4210025;28;20119;-66
2023/02/17 01:02:36;;;;;;;10.10;7.43;;;11.30;99.90;;;;;;4192536;28;20043;-66
2023/02/17 01:04:36;;;;;;;11.43;7.22;;;11.30;99.90;;;;;;4211149;28;20036;-66
2023/02/17 01:06:39;;;;;;;10.38;6.88;;;11.30;99.90;;;;;;4210719;28;20036;-66
2023/02/17 01:08:39;;;;;;;10.32;7.10;;;11.30;99.90;;;;;;4211312;28;20046;-66
2023/02/17 01:10:42;;;;;;;12.63;7.18;;;11.30;99.90;;;;;;4209510;28;20032;-66
2023/02/17 01:12:43;;;;;;;8.07;6.10;;;11.20;99.90;;;;;;4210343;28;20054;-66
2023/02/17 01:14:43;;;;;;;9.63;6.38;;;11.30;99.90;;;;;;4211162;28;20024;-66
2023/02/17 01:16:47;;;;;;;9.25;6.80;;;11.30;99.90;;;;;;4209945;28;20032;-66
2023/02/17 01:18:48;;;;;;;11.07;7.50;;;11.20;99.90;;;;;;4210999;28;20052;-67
2023/02/17 01:20:49;;;;;;;10.02;6.50;;;11.30;99.90;;;;;;4208793;28;20150;-66
2023/02/17 01:22:50;;;;;;;8.43;6.30;;;11.30;99.90;;;;;;4210304;28;20028;-66
2023/02/17 01:24:50;;;;;;;7.95;6.10;;;11.30;99.90;;;;;;4210852;28;20409;-66
2023/02/17 01:26:52;;;;;;;10.90;7.00;;;11.30;99.90;;;;;;4209453;28;20036;-66
2023/02/17 01:28:53;;;;;;;9.93;6.50;;;11.30;99.90;;;;;;4207819;28;20103;-67
2023/02/17 01:30:53;;;;;;;9.57;7.03;;;11.30;99.90;;;;;;4209948;28;20055;-66
2023/02/17 01:32:54;;;;;;;8.73;6.22;;;11.40;99.90;;;;;;4210263;28;20024;-66
2023/02/17 01:34:54;;;;;;;9.77;6.07;;;11.40;99.90;;;;;;4211127;28;20024;-66
2023/02/17 01:36:55;;;;;;;10.35;6.10;;;11.30;99.90;;;;;;4209792;28;20055;-66
2023/02/17 01:38:56;;;;;;;8.43;5.97;;;11.40;99.90;;;;;;4209826;28;20031;-67
2023/02/17 01:40:57;;;;;;;8.60;6.22;;;11.40;99.90;;;;;;4209322;28;20467;-66
2023/02/17 01:42:58;;;;;;;8.98;5.75;;;11.40;99.90;;;;;;4209545;28;20401;-66
2023/02/17 01:45:17;;;;;;;10.63;6.22;;;11.40;99.90;;;;;;4209981;28;20060;-66
2023/02/17 01:47:17;;;;;;;8.15;5.38;;;11.30;99.90;;;;;;4210165;28;20391;-67
2023/02/17 01:49:44;;;;;;;8.18;5.78;;;11.40;99.90;;;;;;4210555;28;20058;-67
2023/02/17 01:51:48;;;;;;;8.02;5.78;;;11.30;99.90;;;;;;4203978;28;20037;-66
2023/02/17 01:53:51;;;;;;;8.02;5.80;;;11.40;99.90;;;;;;4206877;28;20055;-66
2023/02/17 01:55:52;;;;;;;;;;;11.40;99.90;;;;;;4211418;28;20073;-66
2023/02/17 01:57:56;;;;;;;8.00;5.63;;;11.40;99.90;;;;;;4209874;28;19912;-66
2023/02/17 01:59:57;;;;;;;9.40;5.65;;;11.40;99.90;;;;;;4204363;28;20115;-66
2023/02/17 02:02:01;;;;;;;8.57;5.70;;;11.40;99.90;;;;;;4208274;28;20055;-66
2023/02/17 02:04:05;;;;;;;7.47;5.53;;;11.30;99.90;;;;;;4209698;28;20032;-66
2023/02/17 02:06:15;;;;;;;9.00;5.82;;;11.40;99.90;;;;;;4206164;28;20032;-67
2023/02/17 02:08:15;;;;;;;7.15;4.85;;;11.40;99.90;;;;;;4210503;28;20032;-66
2023/02/17 02:10:17;;;;;;;7.25;5.55;;;11.40;99.90;;;;;;4208025;28;20073;-67
2023/02/17 02:12:24;;;;;;;9.30;6.15;;;11.40;99.90;;;;;;4207326;28;20027;-67
2023/02/17 02:14:25;;;;;;;8.13;5.72;;;11.40;99.90;;;;;;4209804;28;20086;-66
2023/02/17 02:17:00;;;;;;;8.40;5.43;;;11.40;99.90;;;;;;4209261;28;20561;-66
2023/02/17 02:19:27;;;;;;;8.77;6.10;;;11.40;99.90;;;;;;4210614;28;20565;-66
2023/02/17 02:21:48;;;;;;;6.80;4.97;;;11.40;99.90;;;;;;4207751;28;20062;-66
2023/02/17 02:23:51;;;;;;;8.00;5.43;;;11.40;99.90;;;;;;4206562;28;20048;-66
2023/02/17 02:26:04;;;;;;;8.65;5.30;;;11.40;99.90;;;;;;4208070;28;20024;-67
2023/02/17 02:28:27;;;;;;;7.68;5.70;;;11.40;99.90;;;;;;4209778;28;20448;-66
2023/02/17 02:31:02;;;;;;;6.50;5.10;;;11.40;99.90;;;;;;4201630;28;20039;-66
2023/02/17 02:33:29;;;;;;;6.20;4.80;;;11.40;99.90;;;;;;4208222;28;20493;-66
2023/02/17 02:35:44;;;;;;;8.38;5.72;;;11.40;99.90;;;;;;4147267;28;20089;-66
2023/02/17 02:38:15;;;;;;;9.35;5.90;;;11.40;99.90;;;;;;4209274;28;20028;-66
2023/02/17 02:40:20;;;;;;;9.75;6.00;;;11.40;99.90;;;;;;4204100;28;20032;-66
2023/02/17 02:42:23;;;;;;;9.50;5.90;;;11.40;99.90;;;;;;4208971;28;20067;-66
2023/02/17 02:44:23;;;;;;;9.48;6.63;;;11.40;99.90;;;;;;4209380;28;20043;-66
2023/02/17 02:46:24;;;;;;;7.85;5.78;;;11.40;99.90;;;;;;4209164;28;20526;-66
2023/02/17 02:48:25;;;;;;;9.23;5.55;;;11.40;99.90;;;;;;4209880;28;20043;-66
2023/02/17 02:51:04;;;;;;;9.15;5.80;;;11.40;99.90;;;;;;4208077;28;20032;-66
2023/02/17 02:53:22;;;;;;;8.40;5.95;;;11.40;99.90;;;;;;4137441;28;20386;-67
2023/02/17 02:56:01;;;;;;;10.20;6.65;;;11.40;99.90;;;;;;4209001;28;20044;-66
2023/02/17 02:58:12;;;;;;;8.18;5.53;;;11.40;99.90;;;;;;4209245;28;20020;-66
2023/02/17 03:00:25;;;;;;;9.00;6.20;;;11.50;99.90;;;;;;4207959;28;20403;-66
2023/02/17 03:02:43;;;;;;;8.90;5.47;;;11.50;99.90;;;;;;4208787;28;20375;-66
2023/02/17 03:05:01;;;;;;;8.18;6.10;;;11.50;99.90;;;;;;4205972;28;20454;-66
2023/02/17 03:07:20;;;;;;;7.88;5.68;;;11.50;99.90;;;;;;4206573;28;20029;-66
2023/02/17 03:09:24;;;;;;;9.68;5.88;;;11.40;99.90;;;;;;4208285;28;20161;-66
2023/02/17 03:11:31;;;;;;;8.05;5.30;;;11.40;99.90;;;;;;4207319;28;20040;-66
2023/02/17 03:13:36;;;;;;;6.93;5.13;;;11.50;99.90;;;;;;4209256;28;20108;-66
2023/02/17 03:15:37;;;;;;;7.45;5.80;;;11.50;99.90;;;;;;4208827;28;20058;-66
2023/02/17 03:17:38;;;;;;;8.13;5.68;;;11.40;99.90;;;;;;4209320;28;20059;-65
2023/02/17 03:19:38;;;;;;;9.15;6.65;;;11.50;99.90;;;;;;4209061;28;20036;-66
2023/02/17 03:21:51;;;;;;;7.43;5.82;;;11.50;99.90;;;;;;4206342;28;20020;-66
2023/02/17 03:23:51;;;;;;;9.30;6.43;;;11.50;99.90;;;;;;4208729;28;20518;-66
2023/02/17 03:25:52;;;;;;;8.70;6.00;;;11.40;99.90;;;;;;4207993;28;20089;-67
2023/02/17 03:27:53;;;;;;;8.10;5.70;;;11.40;99.90;;;;;;4208630;28;20055;-66
2023/02/17 03:29:54;;;;;;;7.03;5.45;;;11.50;99.90;;;;;;4208205;28;20028;-67
2023/02/17 03:31:54;;;;;;;8.68;6.35;;;11.50;99.90;;;;;;4207412;28;22188;-66
2023/02/17 03:33:55;;;;;;;8.63;6.03;;;11.50;99.90;;;;;;4207552;28;20044;-66
2023/02/17 03:35:55;;;;;;;8.50;6.20;;;11.50;99.90;;;;;;4207980;28;20028;-66
2023/02/17 03:37:56;;;;;;;9.35;5.32;;;11.50;99.90;;;;;;4210089;28;20085;-66
2023/02/17 03:39:57;;;;;;;7.55;6.00;;;11.50;99.90;;;;;;4208162;28;20081;-66
2023/02/17 03:41:57;;;;;;;8.07;5.47;;;11.50;99.90;;;;;;4207374;28;20483;-66
2023/02/17 03:43:58;;;;;;;7.50;5.68;;;11.50;99.90;;;;;;4208643;28;20032;-66
2023/02/17 03:45:58;;;;;;;8.68;6.28;;;11.50;99.90;;;;;;4208055;28;20050;-66
2023/02/17 03:47:59;;;;;;;7.72;5.85;;;11.50;99.90;;;;;;4205405;28;20050;-66
2023/02/17 03:50:00;;;;;;;7.55;5.45;;;11.50;99.90;;;;;;4207861;28;20028;-66
2023/02/17 03:52:00;;;;;;;8.73;5.85;;;11.50;99.90;;;;;;4207917;28;20123;-66
2023/02/17 03:54:01;;;;;;;7.78;5.43;;;11.50;99.90;;;;;;4208718;28;20040;-67
2023/02/17 03:56:01;;;;;;;8.98;5.47;;;11.50;99.90;;;;;;4208203;28;20032;-66
2023/02/17 03:58:03;;;;;;;7.07;5.47;;;11.60;99.90;;;;;;4208780;28;20032;-66
2023/02/17 04:00:06;;;;;;;6.30;5.20;;;11.50;99.90;;;;;;4208071;28;20119;-66
2023/02/17 04:02:06;;;;;;;9.82;5.22;;;11.60;99.90;;;;;;4189427;28;20056;-66
2023/02/17 04:04:07;;;;;;;6.85;4.88;;;11.50;99.90;;;;;;4208860;28;20035;-66
2023/02/17 04:06:08;;;;;;;6.05;4.70;;;11.60;99.90;;;;;;4207959;28;20036;-66
2023/02/17 04:08:09;;;;;;;7.75;5.53;;;11.60;99.90;;;;;;4208909;28;20036;-66
2023/02/17 04:10:10;;;;;;;6.50;4.97;;;11.60;99.90;;;;;;4205722;28;20039;-69
2023/02/17 04:12:10;;;;;;;7.07;4.55;;;11.60;99.90;;;;;;4206868;28;20036;-66
2023/02/17 04:14:11;;;;;;;5.90;4.60;;;11.60;99.90;;;;;;4208731;28;20035;-66
2023/02/17 04:16:11;;;;;;;6.25;4.75;;;11.60;99.90;;;;;;4208017;28;20024;-66
2023/02/17 04:18:12;;;;;;;8.90;5.45;;;11.60;99.90;;;;;;4206696;28;20024;-66
2023/02/17 04:20:13;;;;;;;6.60;5.03;;;11.60;99.90;;;;;;4206877;28;20101;-66
2023/02/17 04:22:13;;;;;;;6.68;4.65;;;11.60;99.90;;;;;;4207412;28;20028;-66
2023/02/17 04:24:14;;;;;;;7.85;5.13;;;11.60;99.90;;;;;;4209355;28;20059;-66
2023/02/17 04:26:14;;;;;;;5.10;4.40;;;11.60;99.90;;;;;;4205597;28;20082;-66
2023/02/17 04:28:16;;;;;;;5.53;4.20;;;11.60;99.90;;;;;;4208191;28;20028;-66
2023/02/17 04:30:16;;;;;;;6.72;5.20;;;11.60;99.90;;;;;;4206193;28;20784;-66
2023/02/17 04:32:17;;;;;;;7.18;5.15;;;11.60;99.90;;;;;;4207151;28;20097;-66
2023/02/17 04:34:17;;;;;;;5.53;4.55;;;11.60;99.90;;;;;;4199380;28;20032;-66
2023/02/17 04:36:18;;;;;;;8.02;5.63;;;11.60;99.90;;;;;;4211005;28;20038;-66
2023/02/17 04:38:18;;;;;;;5.25;4.30;;;11.60;99.90;;;;;;4210249;28;20054;-66
2023/02/17 04:40:19;;;;;;;5.68;4.47;;;11.60;99.90;;;;;;4209134;28;20490;-67
2023/02/17 04:42:20;;;;;;;7.07;4.53;;;11.60;99.90;;;;;;4211065;28;20371;-66
2023/02/17 04:44:20;;;;;;;5.85;4.57;;;11.60;99.90;;;;;;4211587;28;20028;-67
2023/02/17 04:46:21;;;;;;;6.15;4.72;;;11.60;99.90;;;;;;4210534;28;20134;-67
2023/02/17 04:48:22;;;;;;;5.75;4.82;;;11.60;99.90;;;;;;4211381;28;20044;-66
2023/02/17 04:50:23;;;;;;;7.00;5.05;;;11.60;99.90;;;;;;4210238;28;20036;-66
2023/02/17 04:52:24;;;;;;;5.43;4.57;;;11.60;99.90;;;;;;4192595;28;20438;-66
2023/02/17 04:54:24;;;;;;;6.03;4.28;;;11.60;99.90;;;;;;4210940;28;20056;-66
2023/02/17 04:56:25;;;;;;;5.20;4.50;;;11.60;99.90;;;;;;4209395;28;20040;-66
2023/02/17 04:58:25;;;;;;;5.65;4.38;;;11.60;99.90;;;;;;4210750;28;20040;-65
2023/02/17 05:00:26;;;;;;;5.40;4.18;;;11.60;99.90;;;;;;4210499;28;20047;-65
2023/02/17 05:02:27;;;;;;;5.43;4.55;;;11.60;99.90;;;;;;4210079;28;20094;-66
2023/02/17 05:04:27;;;;;;;6.40;5.03;;;11.60;99.90;;;;;;4211468;28;20036;-65
2023/02/17 05:06:28;;;;;;;4.53;4.03;;;11.60;99.90;;;;;;4210809;28;20047;-66
2023/02/17 05:08:29;;;;;;;4.70;4.03;;;11.50;99.90;;;;;;4210639;28;20025;-66
2023/02/17 05:10:29;;;;;;;4.35;3.92;;;11.50;99.90;;;;;;4209721;28;20277;-66
2023/02/17 05:12:30;;;;;;;4.63;3.88;;;11.50;99.90;;;;;;4209625;28;20039;-66
2023/02/17 05:14:31;;;;;;;4.82;4.07;;;11.60;99.90;;;;;;4211459;28;20107;-66
2023/02/17 05:16:31;;;;;;;6.40;4.90;;;11.60;99.90;;;;;;4210515;28;20401;-66
2023/02/17 05:18:32;;;;;;;5.95;4.55;;;11.60;99.90;;;;;;4210540;28;20028;-66
2023/02/17 05:20:32;;;;;;;6.47;4.60;;;11.60;99.90;;;;;;4206325;28;20557;-66
2023/02/17 05:22:33;;;;;;;5.95;4.15;;;11.50;99.90;;;;;;4209531;28;20035;-66
2023/02/17 05:24:33;;;;;;;5.13;4.00;;;11.50;99.90;;;;;;4210590;28;20094;-66
2023/02/17 05:26:34;;;;;;;7.03;4.60;;;11.50;99.90;;;;;;4209929;28;20047;-66
2023/02/17 05:28:36;;;;;;;7.05;4.50;;;11.40;99.90;;;;;;4207508;28;20032;-66
2023/02/17 05:30:36;;;;;;;8.05;4.85;;;11.40;99.90;;;;;;4206975;28;20074;-68
2023/02/17 05:32:37;;;;;;;8.52;4.90;;;11.50;99.90;;;;;;4209185;28;20032;-66
2023/02/17 05:34:37;;;;;;;6.10;4.15;;;11.40;99.90;;;;;;4209253;28;20143;-65
2023/02/17 05:36:38;;;;;;;7.55;4.15;;;11.40;99.90;;;;;;4207000;28;20032;-66
2023/02/17 05:38:39;;;;;;;7.38;4.40;;;11.40;99.90;;;;;;4210449;28;20039;-67
2023/02/17 05:40:40;;;;;;;4.90;4.00;;;11.40;99.90;;;;;;4208532;28;20051;-66
2023/02/17 05:42:40;;;;;;;6.25;4.22;;;11.40;99.90;;;;;;4210308;28;20028;-66
2023/02/17 05:44:41;;;;;;;6.00;3.83;;;11.40;99.90;;;;;;4210211;28;20086;-66
2023/02/17 05:46:41;;;;;;;8.07;4.28;;;11.40;99.90;;;;;;4211430;28;20032;-66
2023/02/17 05:48:43;;;;;;;5.60;3.53;;;11.40;99.90;;;;;;4207494;28;20035;-66
2023/02/17 05:50:43;;;;;;;8.48;3.85;;;11.40;99.90;;;;;;4207867;28;20028;-66
2023/02/17 05:52:44;;;;;;;4.93;3.50;;;11.40;99.90;;;;;;4209198;28;20039;-66
2023/02/17 05:54:44;;;;;;;5.75;3.80;;;11.40;99.90;;;;;;4211554;28;20036;-66
2023/02/17 05:56:45;;;;;;;5.53;3.40;;;11.40;99.90;;;;;;4204272;28;20028;-66
2023/02/17 05:58:46;;;;;;;6.30;3.72;;;11.40;99.90;;;;;;4209002;28;20081;-66
2023/02/17 06:00:46;;;;;;;9.85;3.78;;;11.40;99.90;;;;;;4210375;28;20090;-66
2023/02/17 06:02:47;;;;;;;6.07;3.92;;;11.40;99.90;;;;;;4208816;28;20034;-66
2023/02/17 06:04:47;;;;;;;4.68;3.45;;;11.40;99.90;;;;;;4193186;28;20086;-67
2023/02/17 06:06:48;;;;;;;5.65;3.97;;;11.40;99.90;;;;;;4207723;28;20089;-66
2023/02/17 06:08:49;;;;;;;8.77;4.85;;;11.40;99.90;;;;;;4206192;28;20051;-66
2023/02/17 06:10:51;;;;;;;6.57;4.32;;;11.30;99.90;;;;;;4207922;28;20145;-66
2023/02/17 06:12:52;;;;;;;4.97;4.25;;;11.40;99.90;;;;;;4209522;28;20031;-66
2023/02/17 06:14:52;;;;;;;7.53;4.13;;;11.40;99.90;;;;;;4204909;28;20059;-65
2023/02/17 06:16:55;;;;;;;5.72;4.38;;;11.40;99.90;;;;;;4208877;28;20036;-66
2023/02/17 06:18:56;;;;;;;;;;;11.30;99.90;;;;;;4210580;28;20089;-66
2023/02/17 06:20:57;;;;;;;6.30;4.00;;;11.40;99.90;;;;;;4201648;28;25152;-66
2023/02/17 06:22:57;;;;;;;5.70;4.10;;;11.30;99.90;;;;;;4197953;28;20044;-66
2023/02/17 06:24:58;;;;;;;6.72;4.35;;;11.30;99.90;;;;;;4206033;28;20078;-66
2023/02/17 06:27:00;;;;;;;5.75;3.60;;;11.40;99.90;;;;;;4202878;28;20135;-66
2023/02/17 06:29:00;;;;;;;6.90;4.40;;;11.30;99.90;;;;;;4203427;28;20051;-66
2023/02/17 06:31:01;;;;;;;6.75;4.47;;;11.30;99.90;;;;;;4198352;28;20032;-69
2023/02/17 06:33:01;;;;;;;9.77;5.00;;;11.40;99.90;;;;;;4205009;28;20036;-68
2023/02/17 06:35:02;;;;;;;8.10;4.57;;;11.40;99.90;;;;;;4206214;28;20694;-66
2023/02/17 06:37:03;;;;;;;7.32;4.50;;;11.30;99.90;;;;;;4204361;28;20028;-66
2023/02/17 06:39:03;;;;;;;6.00;4.80;;;11.30;99.90;;;;;;4206312;28;20028;-66
2023/02/17 06:41:04;;;;;;;6.35;4.63;;;11.30;99.90;;;;;;4205712;28;20056;-66
2023/02/17 06:43:05;;;;;;;5.20;3.95;;;11.30;99.90;;;;;;4205165;28;20395;-66
2023/02/17 06:45:06;;;;;;;6.78;4.75;;;11.30;99.90;;;;;;4205633;28;20100;-66
2023/02/17 06:47:07;;;;;;;6.05;5.05;;;11.30;99.90;;;;;;4204859;28;20503;-67
2023/02/17 06:49:07;;;;;;;8.82;5.72;;;11.40;99.90;;;;;;4205500;28;20024;-66
2023/02/17 06:51:08;;;;;;;6.03;4.93;;;11.30;99.90;;;;;;4202126;28;20054;-68
2023/02/17 06:53:08;;;;;;;12.13;6.07;;;11.30;99.90;;;;;;4204399;28;20526;-68
2023/02/17 06:55:09;;;;;;;9.05;6.20;;;11.30;99.90;;;;;;4204914;28;20197;-67
2023/02/17 06:57:10;;;;;;;8.88;5.50;;;11.40;99.90;;;;;;4204392;28;20106;-67
2023/02/17 06:59:10;;;;;;;8.63;5.80;;;11.30;99.90;;;;;;4205700;28;20085;-68
2023/02/17 07:01:16;;;;;;;11.55;7.03;;;11.30;99.90;;;;;;4202734;28;20454;-67
2023/02/17 07:03:17;;;;;;;8.68;6.18;;;11.30;99.90;;;;;;4204612;28;20040;-67
2023/02/17 07:05:17;;;;;;;9.07;6.53;;;11.30;99.90;;;;;;4203105;28;20036;-67
2023/02/17 07:07:18;;;;;;;13.32;7.35;;;11.30;99.90;;;;;;4204228;28;20024;-67
2023/02/17 07:09:19;;;;;;;12.32;7.68;;;11.30;99.90;;;;;;4206356;28;20671;-67
2023/02/17 07:11:19;;;;;;;11.35;7.90;;;11.30;99.90;;;;;;4203921;28;20556;-67
2023/02/17 07:13:20;;;;;;;9.77;7.72;;;11.30;99.90;;;;;;4205301;28;21406;-67
2023/02/17 07:15:20;;;;;;;9.48;7.80;;;11.40;99.90;;;;;;4200313;28;20050;-67
2023/02/17 07:17:21;;;;;;;11.93;7.30;;;11.40;99.90;;;;;;4203747;28;20495;-68
2023/02/17 07:19:22;;;;;;;11.38;8.35;;;11.40;99.90;;;;;;4186493;28;20103;-67
2023/02/17 07:21:23;;;;;;;12.00;9.35;;;11.40;99.90;;;;;;4202968;28;20495;-67
2023/02/17 07:23:23;;;;;;;12.00;9.18;;;11.40;99.90;;;;;;4203012;28;20044;-67
2023/02/17 07:25:24;;;;;;;11.88;9.10;;;11.40;99.90;;;;;;4203065;28;20051;-67
2023/02/17 07:27:24;;;;;;;12.50;9.13;;;11.40;99.90;;;;;;4204863;28;20056;-67
2023/02/17 07:29:26;;;;;;;13.40;9.82;;;11.40;99.90;;;;;;4205557;28;20035;-69
2023/02/17 07:31:26;;;;;;;12.70;8.90;;;11.40;99.90;;;;;;4202597;28;20120;-67
2023/02/17 07:33:27;;;;;;;15.15;10.40;;;11.40;99.90;;;;;;4206072;28;20051;-68
2023/02/17 07:35:28;;;;;;;10.77;7.85;;;11.40;99.90;;;;;;4205980;28;20533;-67
2023/02/17 07:37:28;;;;;;;19.70;11.48;;;11.40;99.90;;;;;;4204773;28;20032;-68
2023/02/17 07:39:29;;;;;;;12.80;9.55;;;11.40;99.90;;;;;;4205350;28;20387;-68
2023/02/17 07:41:32;;;;;;;13.77;8.55;;;11.40;99.90;;;;;;4202396;28;20028;-67
2023/02/17 07:43:33;;;;;;;12.95;9.13;;;11.40;99.90;;;;;;4207190;28;20097;-68
2023/02/17 07:45:33;;;;;;;13.27;9.35;;;11.40;99.90;;;;;;4202035;28;20028;-67
2023/02/17 07:47:34;;;;;;;12.98;9.55;;;11.50;99.90;;;;;;4204048;28;20032;-68
2023/02/17 07:49:34;;;;;;;15.30;9.20;;;11.40;99.90;;;;;;4205912;28;20252;-68
2023/02/17 07:51:35;;;;;;;12.57;8.40;;;11.50;99.90;;;;;;4200807;28;20443;-68
2023/02/17 07:53:36;;;;;;;12.07;8.23;;;11.50;99.90;;;;;;4200970;28;20083;-67
2023/02/17 07:55:37;;;;;;;13.55;7.45;;;11.50;99.90;;;;;;4204288;28;20425;-67
2023/02/17 07:57:37;;;;;;;9.52;7.72;;;11.50;99.90;;;;;;4205715;28;20115;-68
2023/02/17 07:59:38;;;;;;;11.32;7.50;;;11.50;99.90;;;;;;4184719;28;20036;-67
2023/02/17 08:01:39;;;;;;;11.35;7.43;;;11.50;99.90;;;;;;4198705;28;20036;-67
2023/02/17 08:03:39;;;;;;;10.15;6.55;;;11.50;99.90;;;;;;4203423;28;20036;-67
2023/02/17 08:05:41;;;;;;;9.13;6.72;;;11.50;99.90;;;;;;4185536;28;20057;-68
2023/02/17 08:07:41;;;;;;;9.60;6.70;;;11.60;99.90;;;;;;4206398;28;20504;-68
2023/02/17 08:14:22;;;;;;;9.57;6.97;;;11.60;99.90;;;;;;4209930;28;20040;-67
2023/02/17 08:16:25;;;;;;;8.75;6.32;;;11.60;99.90;;;;;;4208122;28;20076;-68
2023/02/17 08:18:26;;;;;;;9.00;6.82;;;11.60;99.90;;;;;;4188828;28;20035;-67
2023/02/17 08:20:27;;;;;;;8.43;6.53;;;11.60;99.90;;;;;;4207278;28;20036;-67
2023/02/17 08:22:27;;;;;;;7.93;6.32;;;11.60;99.90;;;;;;4208111;28;20032;-68
2023/02/17 08:24:28;;;;;;;9.32;7.22;;;11.70;99.90;;;;;;4190320;28;20029;-67
2023/02/17 08:26:29;;;;;;;9.18;6.65;;;11.70;99.90;;;;;;4208465;28;20044;-67
2023/02/17 08:28:31;;;;;;;12.25;7.50;;;11.70;99.90;;;;;;4210299;28;20056;-67
2023/02/17 08:30:34;;;;;;;9.13;6.70;;;11.70;99.90;;;;;;4206912;28;20039;-67
2023/02/17 08:32:35;;;;;;;9.88;6.22;;;11.70;99.90;;;;;;4207503;28;20036;-67
2023/02/17 08:34:36;;;;;;;8.52;6.00;;;11.80;99.90;;;;;;4208202;28;20633;-67
2023/02/17 08:36:37;;;;;;;7.85;5.75;;;11.70;99.90;;;;;;4208130;28;20136;-67
2023/02/17 08:38:38;;;;;;;8.77;5.85;;;11.70;99.90;;;;;;4205689;28;20027;-67
2023/02/17 08:40:39;;;;;;;9.02;5.80;;;11.80;99.90;;;;;;4204636;28;20454;-67
2023/02/17 08:42:39;;;;;;;7.72;5.90;;;11.80;99.90;;;;;;4207210;28;20095;-67
2023/02/17 08:44:40;;;;;;;7.15;5.63;;;11.80;99.90;;;;;;4206965;28;20552;-68
2023/02/17 08:46:41;;;;;;;6.75;4.72;;;11.80;99.90;;;;;;4206219;28;20059;-67
2023/02/17 08:48:42;;;;;;;8.15;5.47;;;11.80;99.90;;;;;;4208159;28;20036;-67
2023/02/17 08:50:46;;;;;;;8.18;5.65;;;11.90;99.90;;;;;;4205811;28;20038;-66
2023/02/17 08:52:47;;;;;;;9.40;5.63;;;11.90;99.90;;;;;;4205414;28;20446;-68
2023/02/17 08:54:47;;;;;;;9.27;6.10;;;11.90;99.90;;;;;;4208324;28;20096;-67
2023/02/17 08:56:48;;;;;;;10.98;5.85;;;11.90;99.90;;;;;;4206245;28;20040;-68
2023/02/17 08:58:49;;;;;;;9.32;5.78;;;11.90;99.90;;;;;;4202849;28;20044;-67
2023/02/17 09:00:50;;;;;;;7.47;5.40;;;12.00;99.90;;;;;;4204926;28;20036;-67
2023/02/17 09:02:51;;;;;;;9.27;5.82;;;12.00;99.90;;;;;;4204600;28;21199;-67
2023/02/17 09:04:51;;;;;;;7.80;5.85;;;12.00;99.90;;;;;;4204319;28;20457;-67
2023/02/17 09:06:55;;;;;;;7.55;5.40;;;12.00;99.90;;;;;;4204822;28;20036;-68
2023/02/17 09:08:56;;;;;;;11.43;7.28;;;12.00;99.90;;;;;;4202563;28;20054;-67
2023/02/17 09:10:57;;;;;;;8.77;6.22;;;12.10;99.90;;;;;;4204274;28;20515;-67
2023/02/17 09:12:57;;;;;;;7.32;5.50;;;12.10;99.90;;;;;;4206311;28;20501;-67
2023/02/17 09:14:58;;;;;;;8.93;6.18;;;12.10;99.90;;;;;;4207275;28;20052;-67
2023/02/17 09:16:58;;;;;;;10.00;5.70;;;12.10;99.90;;;;;;4207433;28;20482;-68
2023/02/17 09:18:59;;;;;;;7.63;5.68;;;12.10;99.90;;;;;;4206187;28;20469;-68
2023/02/17 09:21:09;;;;;;;11.18;6.03;;;12.20;99.90;;;;;;4188573;28;20046;-67
2023/02/17 09:23:09;;;;;;;7.75;5.25;;;12.20;99.90;;;;;;4203341;28;20024;-67
2023/02/17 09:25:10;;;;;;;9.23;5.97;;;12.20;99.90;;;;;;4205605;28;20081;-68
2023/02/17 09:27:11;;;;;;;9.63;5.50;;;12.20;99.90;;;;;;4205346;28;20067;-68
2023/02/17 09:29:12;;;;;;;10.48;5.95;;;12.20;99.90;;;;;;4207322;28;20146;-66
2023/02/17 09:31:21;;;;;;;9.93;6.15;;;12.30;99.90;;;;;;4205093;28;20060;-67
2023/02/17 09:33:22;;;;;;;8.40;5.57;;;12.30;99.90;;;;;;4203589;28;20044;-68
2023/02/17 09:35:22;;;;;;;8.07;5.55;;;12.30;99.90;;;;;;4204390;28;20060;-67
2023/02/17 09:37:23;;;;;;;7.35;5.35;;;12.40;99.90;;;;;;4205845;28;20574;-67
2023/02/17 09:39:25;;;;;;;8.82;5.88;;;12.30;99.90;;;;;;4204653;28;20426;-67
2023/02/17 09:41:46;;;;;;;8.07;5.82;;;12.40;99.90;;;;;;4206274;28;20050;-67
2023/02/17 09:43:46;;;;;;;7.38;5.35;;;12.40;99.90;;;;;;4205681;28;20052;-66
2023/02/17 09:45:55;;;;;;;7.10;4.88;;;12.40;99.90;;;;;;4204225;28;20047;-68
2023/02/17 09:48:04;;;;;;;8.63;6.03;;;12.40;99.90;;;;;;4206464;28;20043;-68
2023/02/17 09:50:08;;;;;;;9.68;6.18;;;12.50;99.90;;;;;;4205252;28;20058;-68
2023/02/17 09:52:42;;;;;;;7.30;5.10;;;12.50;99.90;;;;;;4205997;28;20044;-67
2023/02/17 09:54:48;;;;;;;;;;;12.50;99.90;;;;;;4185011;28;20036;-67
2023/02/17 09:56:51;;;;;;;11.60;5.45;;;12.60;99.90;;;;;;4205216;28;21074;-67
2023/02/17 09:58:59;;;;;;;8.98;5.97;;;12.60;99.90;;;;;;4203092;28;20035;-67
2023/02/17 10:01:03;;;;;;;7.20;5.65;;;12.60;99.90;;;;;;4203950;28;20604;-67
2023/02/17 10:03:24;;;;;;;7.93;5.10;;;12.60;99.90;;;;;;4202945;28;20021;-67
2023/02/17 10:05:32;;;;;;;8.38;5.57;;;12.60;99.90;;;;;;4202206;28;20075;-67
2023/02/17 10:07:39;;;;;;;7.13;5.57;;;12.60;99.90;;;;;;4206168;28;20345;-67
2023/02/17 10:10:18;;;;;;;9.73;5.43;;;12.60;99.90;;;;;;4203410;28;20028;-67
2023/02/17 10:12:32;;;;;;;8.88;5.72;;;12.70;99.90;;;;;;4199255;28;20016;-67
2023/02/17 10:14:58;;;;;;;8.02;5.43;;;12.70;99.90;;;;;;4205203;28;20032;-67
2023/02/17 10:17:28;;;;;;;6.68;5.10;;;12.70;99.90;;;;;;4203660;28;20079;-67
2023/02/17 10:19:35;;;;;;;8.38;5.40;;;12.80;99.90;;;;;;4204545;28;20032;-67
2023/02/17 10:21:45;;;;;;;9.23;5.38;;;12.80;99.90;;;;;;4205303;28;20040;-67
2023/02/17 10:23:46;;;;;;;7.75;5.55;;;12.80;99.90;;;;;;4205328;28;20059;-67
2023/02/17 10:25:46;;;;;;;8.02;6.22;;;12.80;99.90;;;;;;4204702;28;20032;-67
2023/02/17 10:28:16;;;;;;;6.60;4.90;;;12.80;99.90;;;;;;4204554;28;20071;-67
2023/02/17 10:30:27;;;;;;;6.95;5.00;;;12.90;99.90;;;;;;4187563;28;21061;-67
2023/02/17 10:32:31;;;;;;;7.53;5.45;;;12.90;99.90;;;;;;4205961;28;20093;-67
2023/02/17 10:34:46;;;;;;;7.53;4.90;;;12.80;99.90;;;;;;4204160;28;20036;-67
2023/02/17 10:36:59;;;;;;;6.93;5.20;;;12.80;99.90;;;;;;4181811;28;20035;-67
2023/02/17 10:39:50;;;;;;;7.65;5.32;;;12.80;99.90;;;;;;4204789;28;20068;-67
2023/02/17 10:41:53;;;;;;;8.50;5.40;;;12.80;99.90;;;;;;4169116;28;20794;-67
2023/02/17 10:43:54;;;;;;;8.45;5.38;;;12.90;99.90;;;;;;4206035;28;20039;-68
2023/02/17 10:45:58;;;;;;;6.90;5.10;;;13.00;99.90;;;;;;4203328;28;20499;-67